createdAt,value
2019-03-17T00:00:40.789Z,90.11
2019-03-17T00:01:40.779Z,90.11
2019-03-17T00:02:40.773Z,89.25
2019-03-17T00:03:40.758Z,90.31
2019-03-17T00:04:40.752Z,89.45
2019-03-17T00:05:40.750Z,90.59
2019-03-17T00:06:40.741Z,90.31
2019-03-17T00:07:40.731Z,90.02
2019-03-17T00:08:40.719Z,90.40
2019-03-17T00:09:40.715Z,90.11
2019-03-17T00:10:40.710Z,90.50
2019-03-17T00:11:40.705Z,90.59
2019-03-17T00:12:40.698Z,90.40
2019-03-17T00:13:40.693Z,90.21
2019-03-17T00:14:40.681Z,90.11
2019-03-17T00:15:40.667Z,90.21
2019-03-17T00:16:40.660Z,90.31
2019-03-17T00:17:41.977Z,90.59
2019-03-17T00:18:40.646Z,90.40
2019-03-17T00:19:40.647Z,89.54
2019-03-17T00:20:40.635Z,90.02
2019-03-17T00:21:40.625Z,90.02
2019-03-17T00:22:40.618Z,90.21
2019-03-17T00:23:40.613Z,90.02
2019-03-17T00:24:40.607Z,89.73
2019-03-17T00:25:40.597Z,90.02
2019-03-17T00:26:40.587Z,89.83
2019-03-17T00:27:40.578Z,89.73
2019-03-17T00:28:40.567Z,89.83
2019-03-17T00:29:40.562Z,89.06
2019-03-17T00:30:40.556Z,89.25
2019-03-17T00:31:40.551Z,88.87
2019-03-17T00:32:40.542Z,89.25
2019-03-17T00:33:40.537Z,89.25
2019-03-17T00:34:44.396Z,89.54
2019-03-17T00:35:40.518Z,89.83
2019-03-17T00:36:40.510Z,89.73
2019-03-17T00:37:40.508Z,90.11
2019-03-17T00:38:40.501Z,89.73
2019-03-17T00:39:40.488Z,89.64
2019-03-17T00:40:40.480Z,89.92
2019-03-17T00:41:40.468Z,90.02
2019-03-17T00:42:40.463Z,89.92
2019-03-17T00:43:40.459Z,89.54
2019-03-17T00:44:40.456Z,90.02
2019-03-17T00:45:40.444Z,89.64
2019-03-17T00:46:40.437Z,89.54
2019-03-17T00:47:40.424Z,90.11
2019-03-17T00:48:40.414Z,90.21
2019-03-17T00:49:40.411Z,90.50
2019-03-17T00:50:40.408Z,89.73
2019-03-17T00:51:40.500Z,89.45
2019-03-17T00:52:40.396Z,90.11
2019-03-17T00:53:40.381Z,89.64
2019-03-17T00:54:40.373Z,89.73
2019-03-17T00:55:40.430Z,89.83
2019-03-17T00:56:40.360Z,89.92
2019-03-17T00:57:40.353Z,89.83
2019-03-17T00:58:40.345Z,89.83
2019-03-17T00:59:40.331Z,89.16
2019-03-17T01:00:40.323Z,89.73
2019-03-17T01:01:40.316Z,89.54
2019-03-17T01:02:40.313Z,89.83
2019-03-17T01:03:40.306Z,89.83
2019-03-17T01:04:40.302Z,89.73
2019-03-17T01:05:40.293Z,89.83
2019-03-17T01:06:40.285Z,89.97
2019-03-17T01:07:40.273Z,89.50
2019-03-17T01:08:40.265Z,90.02
2019-03-17T01:09:40.262Z,89.92
2019-03-17T01:10:40.254Z,89.50
2019-03-17T01:11:40.249Z,90.21
2019-03-17T01:12:40.234Z,89.73
2019-03-17T01:13:40.226Z,90.36
2019-03-17T01:14:40.221Z,90.17
2019-03-17T01:15:40.217Z,90.07
2019-03-17T01:16:40.205Z,90.02
2019-03-17T01:17:40.208Z,90.07
2019-03-17T01:18:40.193Z,90.17
2019-03-17T01:19:40.182Z,90.07
2019-03-17T01:20:40.173Z,90.17
2019-03-17T01:21:40.166Z,90.45
2019-03-17T01:22:40.160Z,90.55
2019-03-17T01:23:40.155Z,90.07
2019-03-17T01:24:40.144Z,89.59
2019-03-17T01:25:40.131Z,89.45
2019-03-17T01:26:40.126Z,89.40
2019-03-17T01:27:40.123Z,90.55
2019-03-17T01:28:40.119Z,89.21
2019-03-17T01:29:40.112Z,89.59
2019-03-17T01:30:40.101Z,89.64
2019-03-17T01:31:40.091Z,89.40
2019-03-17T01:32:40.082Z,89.97
2019-03-17T01:33:40.074Z,88.92
2019-03-17T01:34:40.081Z,89.21
2019-03-17T01:35:40.063Z,89.31
2019-03-17T01:36:40.055Z,89.59
2019-03-17T01:37:40.048Z,90.07
2019-03-17T01:38:40.039Z,90.17
2019-03-17T01:39:40.025Z,89.59
2019-03-17T01:40:40.016Z,89.78
2019-03-17T01:41:40.029Z,89.69
2019-03-17T01:42:40.007Z,89.59
2019-03-17T01:43:39.996Z,89.78
2019-03-17T01:44:39.985Z,89.50
2019-03-17T01:45:39.981Z,90.17
2019-03-17T01:46:39.975Z,90.17
2019-03-17T01:47:39.970Z,90.36
2019-03-17T01:48:39.963Z,89.97
2019-03-17T01:49:39.958Z,89.69
2019-03-17T01:50:39.947Z,90.26
2019-03-17T01:51:39.935Z,89.69
2019-03-17T01:52:39.926Z,89.50
2019-03-17T01:53:39.915Z,90.45
2019-03-17T01:54:39.910Z,90.36
2019-03-17T01:55:39.909Z,89.97
2019-03-17T01:56:39.899Z,90.45
2019-03-17T01:57:39.883Z,89.40
2019-03-17T01:58:39.879Z,90.36
2019-03-17T01:59:39.874Z,90.17
2019-03-17T02:00:39.869Z,89.97
2019-03-17T02:01:39.859Z,90.26
2019-03-17T02:02:39.853Z,89.59
2019-03-17T02:03:39.842Z,90.07
2019-03-17T02:04:39.836Z,89.88
2019-03-17T02:05:39.824Z,89.50
2019-03-17T02:06:39.817Z,89.40
2019-03-17T02:07:39.814Z,90.36
2019-03-17T02:08:39.806Z,89.97
2019-03-17T02:09:39.796Z,89.59
2019-03-17T02:10:39.788Z,90.36
2019-03-17T02:11:39.777Z,90.26
2019-03-17T02:12:39.767Z,90.36
2019-03-17T02:13:39.766Z,90.55
2019-03-17T02:14:39.760Z,89.78
2019-03-17T02:15:39.745Z,90.36
2019-03-17T02:16:39.735Z,90.45
2019-03-17T02:17:39.732Z,90.17
2019-03-17T02:18:39.723Z,90.45
2019-03-17T02:19:39.721Z,90.26
2019-03-17T02:20:39.711Z,89.88
2019-03-17T02:21:39.703Z,90.36
2019-03-17T02:22:39.701Z,90.26
2019-03-17T02:23:39.684Z,90.36
2019-03-17T02:24:39.676Z,90.17
2019-03-17T02:25:39.667Z,89.69
2019-03-17T02:26:39.657Z,90.36
2019-03-17T02:27:39.656Z,89.97
2019-03-17T02:28:39.649Z,90.45
2019-03-17T02:29:39.636Z,90.07
2019-03-17T02:30:39.632Z,89.78
2019-03-17T02:31:39.627Z,90.36
2019-03-17T02:32:39.627Z,90.17
2019-03-17T02:33:39.612Z,90.26
2019-03-17T02:34:39.630Z,90.36
2019-03-17T02:35:40.138Z,89.78
2019-03-17T02:36:39.585Z,90.36
2019-03-17T02:37:39.578Z,90.36
2019-03-17T02:38:39.567Z,90.26
2019-03-17T02:39:39.574Z,90.17
2019-03-17T02:40:39.555Z,90.36
2019-03-17T02:41:39.549Z,90.55
2019-03-17T02:42:39.541Z,90.55
2019-03-17T02:43:39.535Z,90.17
2019-03-17T02:44:39.517Z,90.17
2019-03-17T02:45:39.515Z,90.64
2019-03-17T02:46:39.509Z,90.17
2019-03-17T02:47:39.497Z,89.50
2019-03-17T02:48:39.516Z,89.40
2019-03-17T02:49:39.480Z,89.88
2019-03-17T02:50:39.476Z,89.69
2019-03-17T02:51:39.471Z,89.97
2019-03-17T02:52:39.463Z,89.78
2019-03-17T02:53:39.457Z,89.88
2019-03-17T02:54:39.447Z,89.40
2019-03-17T02:55:39.437Z,89.12
2019-03-17T02:56:39.431Z,89.02
2019-03-17T02:57:39.416Z,89.12
2019-03-17T02:58:39.421Z,89.02
2019-03-17T02:59:39.406Z,89.12
2019-03-17T03:00:39.398Z,88.16
2019-03-17T03:01:39.386Z,88.92
2019-03-17T03:02:39.376Z,88.16
2019-03-17T03:03:39.376Z,88.73
2019-03-17T03:04:39.365Z,88.26
2019-03-17T03:05:53.844Z,87.97
2019-03-17T03:06:39.354Z,87.49
2019-03-17T03:07:39.347Z,87.97
2019-03-17T03:08:39.335Z,87.87
2019-03-17T03:09:39.323Z,88.45
2019-03-17T03:10:39.317Z,87.40
2019-03-17T03:11:39.314Z,87.87
2019-03-17T03:12:39.307Z,88.64
2019-03-17T03:13:39.294Z,87.87
2019-03-17T03:14:39.286Z,88.54
2019-03-17T03:15:39.274Z,87.68
2019-03-17T03:16:39.269Z,88.45
2019-03-17T03:17:39.271Z,88.26
2019-03-17T03:18:39.257Z,87.68
2019-03-17T03:19:39.243Z,88.54
2019-03-17T03:20:39.240Z,89.12
2019-03-17T03:21:39.230Z,88.45
2019-03-17T03:22:39.221Z,89.12
2019-03-17T03:23:39.225Z,89.12
2019-03-17T03:24:39.212Z,89.26
2019-03-17T03:25:39.198Z,89.59
2019-03-17T03:26:39.192Z,89.50
2019-03-17T03:27:39.183Z,89.93
2019-03-17T03:28:39.172Z,89.64
2019-03-17T03:29:39.173Z,90.22
2019-03-17T03:30:39.165Z,90.22
2019-03-17T03:31:39.167Z,90.22
2019-03-17T03:32:39.157Z,90.12
2019-03-17T03:33:39.134Z,90.12
2019-03-17T03:34:39.229Z,91.07
2019-03-17T03:35:39.125Z,90.73
2019-03-17T03:36:39.115Z,91.12
2019-03-17T03:37:39.103Z,90.83
2019-03-17T03:38:39.096Z,91.60
2019-03-17T03:39:39.084Z,91.12
2019-03-17T03:40:39.077Z,90.73
2019-03-17T03:41:39.067Z,90.83
2019-03-17T03:42:39.067Z,90.93
2019-03-17T03:43:39.059Z,91.12
2019-03-17T03:44:39.047Z,91.55
2019-03-17T03:45:39.041Z,92.12
2019-03-17T03:46:39.036Z,92.41
2019-03-17T03:47:39.029Z,92.22
2019-03-17T03:48:39.021Z,92.03
2019-03-17T03:49:39.011Z,92.79
2019-03-17T03:50:39.002Z,92.50
2019-03-17T03:51:38.994Z,92.69
2019-03-17T03:52:38.987Z,93.17
2019-03-17T03:53:38.973Z,93.65
2019-03-17T03:54:38.969Z,92.50
2019-03-17T03:55:42.157Z,92.79
2019-03-17T03:56:38.953Z,92.60
2019-03-17T03:57:38.975Z,92.32
2019-03-17T03:58:38.936Z,92.79
2019-03-17T03:59:38.926Z,92.50
2019-03-17T04:00:38.914Z,92.32
2019-03-17T04:01:38.910Z,92.69
2019-03-17T04:02:38.902Z,92.88
2019-03-17T04:03:38.919Z,92.50
2019-03-17T04:04:38.895Z,92.32
2019-03-17T04:05:38.878Z,92.22
2019-03-17T04:06:38.870Z,92.22
2019-03-17T04:07:38.866Z,92.32
2019-03-17T04:08:38.859Z,92.41
2019-03-17T04:09:38.849Z,92.41
2019-03-17T04:10:38.839Z,92.32
2019-03-17T04:11:38.826Z,92.50
2019-03-17T04:12:38.818Z,92.32
2019-03-17T04:13:38.808Z,92.50
2019-03-17T04:14:38.870Z,91.74
2019-03-17T04:15:38.816Z,91.74
2019-03-17T04:16:38.788Z,91.55
2019-03-17T04:17:38.785Z,91.83
2019-03-17T04:18:38.776Z,91.64
2019-03-17T04:19:38.762Z,92.50
2019-03-17T04:20:38.754Z,92.50
2019-03-17T04:21:38.751Z,91.93
2019-03-17T04:22:38.747Z,91.36
2019-03-17T04:23:38.729Z,91.27
2019-03-17T04:24:38.727Z,91.64
2019-03-17T04:25:38.712Z,91.46
2019-03-17T04:26:38.701Z,91.93
2019-03-17T04:27:38.700Z,91.27
2019-03-17T04:28:38.691Z,91.55
2019-03-17T04:29:38.684Z,91.74
2019-03-17T04:30:38.677Z,91.55
2019-03-17T04:31:38.664Z,91.74
2019-03-17T04:32:38.655Z,91.07
2019-03-17T04:33:38.647Z,90.98
2019-03-17T04:34:38.640Z,91.36
2019-03-17T04:35:38.633Z,91.74
2019-03-17T04:36:40.364Z,90.88
2019-03-17T04:37:38.612Z,91.36
2019-03-17T04:38:38.603Z,92.12
2019-03-17T04:39:38.602Z,92.22
2019-03-17T04:40:38.592Z,90.98
2019-03-17T04:41:38.592Z,91.36
2019-03-17T04:42:38.580Z,91.74
2019-03-17T04:43:38.565Z,91.07
2019-03-17T04:44:38.558Z,91.07
2019-03-17T04:45:38.548Z,91.55
2019-03-17T04:46:38.541Z,91.93
2019-03-17T04:47:38.537Z,92.03
2019-03-17T04:48:38.555Z,92.69
2019-03-17T04:49:38.518Z,92.50
2019-03-17T04:50:38.509Z,92.60
2019-03-17T04:51:38.495Z,92.98
2019-03-17T04:52:38.487Z,93.84
2019-03-17T04:53:38.487Z,94.32
2019-03-17T04:54:38.477Z,93.70
2019-03-17T04:55:38.463Z,94.37
2019-03-17T04:56:38.455Z,94.46
2019-03-17T04:57:38.450Z,94.93
2019-03-17T04:58:38.443Z,94.65
2019-03-17T04:59:38.438Z,95.41
2019-03-17T05:00:38.428Z,95.61
2019-03-17T05:01:38.419Z,95.51
2019-03-17T05:02:38.413Z,95.79
2019-03-17T05:03:38.399Z,95.98
2019-03-17T05:04:38.390Z,95.70
2019-03-17T05:05:38.378Z,96.56
2019-03-17T05:06:38.371Z,97.61
2019-03-17T05:07:38.369Z,97.17
2019-03-17T05:08:38.358Z,97.27
2019-03-17T05:09:38.344Z,97.56
2019-03-17T05:10:38.337Z,98.32
2019-03-17T05:11:38.332Z,98.60
2019-03-17T05:12:38.324Z,98.79
2019-03-17T05:13:38.317Z,99.27
2019-03-17T05:14:38.309Z,99.27
2019-03-17T05:15:38.297Z,99.84
2019-03-17T05:16:38.286Z,99.55
2019-03-17T05:17:38.278Z,99.99
2019-03-17T05:18:38.270Z,99.99
2019-03-17T05:19:38.269Z,99.99
2019-03-17T05:20:38.257Z,99.99
2019-03-17T05:21:38.245Z,99.94
2019-03-17T05:22:38.237Z,99.99
2019-03-17T05:23:38.224Z,99.99
2019-03-17T05:24:38.214Z,99.99
2019-03-17T05:25:38.211Z,99.98
2019-03-17T05:26:38.202Z,99.99
2019-03-17T05:27:38.187Z,99.79
2019-03-17T05:28:38.179Z,99.99
2019-03-17T05:29:38.171Z,99.99
2019-03-17T05:30:38.163Z,99.99
2019-03-17T05:31:38.159Z,99.99
2019-03-17T05:32:38.150Z,99.99
2019-03-17T05:33:38.137Z,99.99
2019-03-17T05:34:38.129Z,99.51
2019-03-17T05:35:38.115Z,99.99
2019-03-17T05:36:38.106Z,99.99
2019-03-17T05:37:38.099Z,99.99
2019-03-17T05:38:38.092Z,99.99
2019-03-17T05:39:38.087Z,99.99
2019-03-17T05:40:38.078Z,99.99
2019-03-17T05:41:38.065Z,99.99
2019-03-17T05:42:40.434Z,99.99
2019-03-17T05:43:38.052Z,99.99
2019-03-17T05:44:38.044Z,99.99
2019-03-17T05:45:38.031Z,99.99
2019-03-17T05:46:38.026Z,99.99
2019-03-17T05:47:38.008Z,99.99
2019-03-17T05:48:38.000Z,99.99
2019-03-17T05:49:37.988Z,99.99
2019-03-17T05:50:37.981Z,99.99
2019-03-17T05:51:37.976Z,99.99
2019-03-17T05:52:37.967Z,99.99
2019-03-17T05:53:40.256Z,99.99
2019-03-17T05:54:37.954Z,99.99
2019-03-17T05:55:37.939Z,99.99
2019-03-17T05:56:37.929Z,99.99
2019-03-17T05:57:37.925Z,99.99
2019-03-17T05:58:37.915Z,99.99
2019-03-17T05:59:37.903Z,99.99
2019-03-17T06:00:37.894Z,99.99
2019-03-17T06:01:37.882Z,99.99
2019-03-17T06:02:37.873Z,99.99
2019-03-17T06:03:37.869Z,99.99
2019-03-17T06:04:37.932Z,99.99
2019-03-17T06:05:37.851Z,99.99
2019-03-17T06:06:37.843Z,99.99
2019-03-17T06:07:37.847Z,99.99
2019-03-17T06:08:37.818Z,99.99
2019-03-17T06:09:37.815Z,99.99
2019-03-17T06:10:37.804Z,99.99
2019-03-17T06:11:37.799Z,99.99
2019-03-17T06:12:37.788Z,99.99
2019-03-17T06:13:37.775Z,99.99
2019-03-17T06:14:37.768Z,99.99
2019-03-17T06:15:37.762Z,99.99
2019-03-17T06:16:37.752Z,99.99
2019-03-17T06:17:37.748Z,99.99
2019-03-17T06:18:37.732Z,99.99
2019-03-17T06:19:37.719Z,99.99
2019-03-17T06:20:37.710Z,99.99
2019-03-17T06:21:37.700Z,99.99
2019-03-17T06:22:37.690Z,99.99
2019-03-17T06:23:37.690Z,99.99
2019-03-17T06:24:37.678Z,99.99
2019-03-17T06:25:37.672Z,99.99
2019-03-17T06:26:37.663Z,99.99
2019-03-17T06:27:37.648Z,99.99
2019-03-17T06:28:37.640Z,99.99
2019-03-17T06:29:37.634Z,99.99
2019-03-17T06:30:37.635Z,99.99
2019-03-17T06:31:37.613Z,99.99
2019-03-17T06:32:37.602Z,99.99
2019-03-17T06:33:37.653Z,99.99
2019-03-17T06:34:37.587Z,99.99
2019-03-17T06:35:37.576Z,99.99
2019-03-17T06:36:37.568Z,99.99
2019-03-17T06:37:37.558Z,99.99
2019-03-17T06:38:37.548Z,99.99
2019-03-17T06:39:37.544Z,99.99
2019-03-17T06:40:37.533Z,99.99
2019-03-17T06:41:37.526Z,99.99
2019-03-17T06:42:37.514Z,99.99
2019-03-17T06:43:37.499Z,99.99
2019-03-17T06:44:37.491Z,99.99
2019-03-17T06:45:37.486Z,99.99
2019-03-17T06:46:37.477Z,99.99
2019-03-17T06:47:37.464Z,99.99
2019-03-17T06:48:37.456Z,99.99
2019-03-17T06:49:37.446Z,99.99
2019-03-17T06:50:37.438Z,99.99
2019-03-17T06:51:37.435Z,99.99
2019-03-17T06:52:37.424Z,99.99
2019-03-17T06:53:37.415Z,99.99
2019-03-17T06:54:37.407Z,99.99
2019-03-17T06:55:37.391Z,99.99
2019-03-17T06:56:37.384Z,99.99
2019-03-17T06:57:37.371Z,99.99
2019-03-17T06:58:37.361Z,99.99
2019-03-17T06:59:37.357Z,99.99
2019-03-17T07:00:37.348Z,99.99
2019-03-17T07:01:37.334Z,99.99
2019-03-17T07:02:37.326Z,99.99
2019-03-17T07:03:37.320Z,99.99
2019-03-17T07:04:37.312Z,99.99
2019-03-17T07:05:37.305Z,99.99
2019-03-17T07:06:37.295Z,99.99
2019-03-17T07:07:43.860Z,99.99
2019-03-17T07:08:37.273Z,99.99
2019-03-17T07:09:37.264Z,99.99
2019-03-17T07:10:37.255Z,99.99
2019-03-17T07:11:37.253Z,99.99
2019-03-17T07:12:37.242Z,99.99
2019-03-17T07:13:37.230Z,99.99
2019-03-17T07:14:37.220Z,99.99
2019-03-17T07:15:37.209Z,99.99
2019-03-17T07:16:37.197Z,99.99
2019-03-17T07:17:37.194Z,99.99
2019-03-17T07:18:37.186Z,99.99
2019-03-17T07:19:37.174Z,99.99
2019-03-17T07:20:37.167Z,99.99
2019-03-17T07:21:37.157Z,99.99
2019-03-17T07:22:37.148Z,99.99
2019-03-17T07:23:37.143Z,99.99
2019-03-17T07:24:37.134Z,99.99
2019-03-17T07:25:37.126Z,99.99
2019-03-17T07:26:37.116Z,99.99
2019-03-17T07:27:37.104Z,99.99
2019-03-17T07:28:37.093Z,99.99
2019-03-17T07:29:37.081Z,99.99
2019-03-17T07:30:37.073Z,99.99
2019-03-17T07:31:37.070Z,99.99
2019-03-17T07:32:37.062Z,99.99
2019-03-17T07:33:37.057Z,99.99
2019-03-17T07:34:37.041Z,99.99
2019-03-17T07:35:37.036Z,99.99
2019-03-17T07:36:37.024Z,99.99
2019-03-17T07:37:37.019Z,99.99
2019-03-17T07:38:37.014Z,99.99
2019-03-17T07:39:36.998Z,99.99
2019-03-17T07:40:36.988Z,99.99
2019-03-17T07:41:36.979Z,99.99
2019-03-17T07:42:36.970Z,99.99
2019-03-17T07:43:36.967Z,99.99
2019-03-17T07:44:36.955Z,99.99
2019-03-17T07:45:36.950Z,99.99
2019-03-17T07:46:36.944Z,99.99
2019-03-17T07:47:36.930Z,99.99
2019-03-17T07:48:36.921Z,99.99
2019-03-17T07:49:36.917Z,99.99
2019-03-17T07:50:36.907Z,99.99
2019-03-17T07:51:36.895Z,99.99
2019-03-17T07:52:36.888Z,99.99
2019-03-17T07:53:36.877Z,99.99
2019-03-17T07:54:36.867Z,99.99
2019-03-17T07:55:36.861Z,99.99
2019-03-17T07:56:36.857Z,99.99
2019-03-17T07:57:36.844Z,99.99
2019-03-17T07:58:36.837Z,99.99
2019-03-17T07:59:36.821Z,99.99
2019-03-17T08:00:36.813Z,99.99
2019-03-17T08:01:36.808Z,99.99
2019-03-17T08:02:36.798Z,99.99
2019-03-17T08:03:36.795Z,99.99
2019-03-17T08:04:42.346Z,99.99
2019-03-17T08:05:36.777Z,99.99
2019-03-17T08:06:36.763Z,99.99
2019-03-17T08:07:36.759Z,99.99
2019-03-17T08:08:36.781Z,99.99
2019-03-17T08:09:36.738Z,99.99
2019-03-17T08:10:36.729Z,99.99
2019-03-17T08:11:36.716Z,99.99
2019-03-17T08:12:36.705Z,99.99
2019-03-17T08:13:36.696Z,99.99
2019-03-17T08:14:36.689Z,99.99
2019-03-17T08:15:36.685Z,99.99
2019-03-17T08:16:36.676Z,99.99
2019-03-17T08:17:36.669Z,99.99
2019-03-17T08:18:36.660Z,99.99
2019-03-17T08:19:36.650Z,99.99
2019-03-17T08:20:36.638Z,99.99
2019-03-17T08:21:36.633Z,99.99
2019-03-17T08:22:36.625Z,99.99
2019-03-17T08:23:36.611Z,99.99
2019-03-17T08:24:36.602Z,99.99
2019-03-17T08:25:36.601Z,99.99
2019-03-17T08:26:36.583Z,99.99
2019-03-17T08:27:36.655Z,99.99
2019-03-17T08:28:36.587Z,99.99
2019-03-17T08:29:36.562Z,99.99
2019-03-17T08:30:36.613Z,99.99
2019-03-17T08:31:36.540Z,99.99
2019-03-17T08:32:36.536Z,99.99
2019-03-17T08:33:36.526Z,99.99
2019-03-17T08:34:36.518Z,99.99
2019-03-17T08:35:36.514Z,99.99
2019-03-17T08:36:36.505Z,99.99
2019-03-17T08:37:36.492Z,99.99
2019-03-17T08:38:36.485Z,99.99
2019-03-17T08:39:36.482Z,99.99
2019-03-17T08:40:36.473Z,99.99
2019-03-17T08:41:37.750Z,99.99
2019-03-17T08:42:36.455Z,99.99
2019-03-17T08:43:36.443Z,99.99
2019-03-17T08:44:36.434Z,99.94
2019-03-17T08:45:36.427Z,99.99
2019-03-17T08:46:36.419Z,99.99
2019-03-17T08:47:36.416Z,99.84
2019-03-17T08:48:36.407Z,99.70
2019-03-17T08:49:36.398Z,99.99
2019-03-17T08:50:36.390Z,99.70
2019-03-17T08:51:36.464Z,99.32
2019-03-17T08:52:36.369Z,99.13
2019-03-17T08:53:36.369Z,99.60
2019-03-17T08:54:36.368Z,98.61
2019-03-17T08:55:36.346Z,98.61
2019-03-17T08:56:36.339Z,97.94
2019-03-17T08:57:36.335Z,97.66
2019-03-17T08:58:36.327Z,97.08
2019-03-17T08:59:36.325Z,97.56
2019-03-17T09:00:36.316Z,97.27
2019-03-17T09:01:36.315Z,97.75
2019-03-17T09:02:36.302Z,96.65
2019-03-17T09:03:36.293Z,97.03
2019-03-17T09:04:36.284Z,96.56
2019-03-17T09:05:36.279Z,96.27
2019-03-17T09:06:36.265Z,95.79
2019-03-17T09:07:36.281Z,96.84
2019-03-17T09:08:36.260Z,97.13
2019-03-17T09:09:36.244Z,97.61
2019-03-17T09:10:36.236Z,97.51
2019-03-17T09:11:36.235Z,97.61
2019-03-17T09:12:36.230Z,97.32
2019-03-17T09:13:36.228Z,97.51
2019-03-17T09:14:36.222Z,98.27
2019-03-17T09:15:36.212Z,98.27
2019-03-17T09:16:36.204Z,97.99
2019-03-17T09:17:36.192Z,98.65
2019-03-17T09:18:36.185Z,98.65
2019-03-17T09:19:36.183Z,99.08
2019-03-17T09:20:36.175Z,98.32
2019-03-17T09:21:36.165Z,98.13
2019-03-17T09:22:36.240Z,98.22
2019-03-17T09:23:36.147Z,98.42
2019-03-17T09:24:36.142Z,98.32
2019-03-17T09:25:36.140Z,97.94
2019-03-17T09:26:36.132Z,98.70
2019-03-17T09:27:36.131Z,97.85
2019-03-17T09:28:36.113Z,98.32
2019-03-17T09:29:36.117Z,98.13
2019-03-17T09:30:36.106Z,97.66
2019-03-17T09:31:36.101Z,97.66
2019-03-17T09:32:36.095Z,97.75
2019-03-17T09:33:36.091Z,97.94
2019-03-17T09:34:36.083Z,97.56
2019-03-17T09:35:36.072Z,98.03
2019-03-17T09:36:36.068Z,97.61
2019-03-17T09:37:36.056Z,97.80
2019-03-17T09:38:46.613Z,97.99
2019-03-17T09:39:36.086Z,97.51
2019-03-17T09:40:36.042Z,97.13
2019-03-17T09:41:36.031Z,97.32
2019-03-17T09:42:36.025Z,96.94
2019-03-17T09:43:36.024Z,96.94
2019-03-17T09:44:36.017Z,96.94
2019-03-17T09:45:36.013Z,96.27
2019-03-17T09:46:36.007Z,95.65
2019-03-17T09:47:35.996Z,94.93
2019-03-17T09:48:35.989Z,95.32
2019-03-17T09:49:35.980Z,94.46
2019-03-17T09:50:35.976Z,94.84
2019-03-17T09:51:35.974Z,94.17
2019-03-17T09:52:35.967Z,93.60
2019-03-17T09:53:35.973Z,93.65
2019-03-17T09:54:35.958Z,93.46
2019-03-17T09:55:35.948Z,93.17
2019-03-17T09:56:35.941Z,93.84
2019-03-17T09:57:35.941Z,93.46
2019-03-17T09:58:35.935Z,92.83
2019-03-17T09:59:35.925Z,92.21
2019-03-17T10:00:35.925Z,93.22
2019-03-17T10:01:35.911Z,92.55
2019-03-17T10:02:35.904Z,92.36
2019-03-17T10:03:35.905Z,92.36
2019-03-17T10:04:35.897Z,92.17
2019-03-17T10:05:35.892Z,92.26
2019-03-17T10:06:35.887Z,92.46
2019-03-17T10:07:35.878Z,92.65
2019-03-17T10:08:35.870Z,92.36
2019-03-17T10:09:35.867Z,91.98
2019-03-17T10:10:35.864Z,91.88
2019-03-17T10:11:35.864Z,92.17
2019-03-17T10:12:35.855Z,92.17
2019-03-17T10:13:35.845Z,91.69
2019-03-17T10:14:35.839Z,91.88
2019-03-17T10:15:35.838Z,92.36
2019-03-17T10:16:35.831Z,92.26
2019-03-17T10:17:35.841Z,91.50
2019-03-17T10:18:35.818Z,91.21
2019-03-17T10:19:35.809Z,90.17
2019-03-17T10:20:35.800Z,90.45
2019-03-17T10:21:35.797Z,89.59
2019-03-17T10:22:35.789Z,89.97
2019-03-17T10:23:35.789Z,89.59
2019-03-17T10:24:35.782Z,88.92
2019-03-17T10:25:35.778Z,89.25
2019-03-17T10:26:35.774Z,88.97
2019-03-17T10:27:35.763Z,88.49
2019-03-17T10:28:35.757Z,87.73
2019-03-17T10:29:35.755Z,87.92
2019-03-17T10:30:35.749Z,87.29
2019-03-17T10:31:35.739Z,86.87
2019-03-17T10:32:35.733Z,86.34
2019-03-17T10:33:35.725Z,85.47
2019-03-17T10:34:35.721Z,83.93
2019-03-17T10:35:35.719Z,81.96
2019-03-17T10:36:35.715Z,80.52
2019-03-17T10:37:35.709Z,79.62
2019-03-17T10:38:35.706Z,79.10
2019-03-17T10:39:35.697Z,80.16
2019-03-17T10:40:35.694Z,81.13
2019-03-17T10:41:35.693Z,83.13
2019-03-17T10:42:35.693Z,84.23
2019-03-17T10:43:35.691Z,85.05
2019-03-17T10:44:35.685Z,85.87
2019-03-17T10:45:35.676Z,86.35
2019-03-17T10:46:35.675Z,87.40
2019-03-17T10:47:35.673Z,88.31
2019-03-17T10:48:35.668Z,89.74
2019-03-17T10:49:35.662Z,90.59
2019-03-17T10:50:48.789Z,91.55
2019-03-17T10:51:35.650Z,92.02
2019-03-17T10:52:35.642Z,90.45
2019-03-17T10:53:35.637Z,89.20
2019-03-17T10:54:35.636Z,88.77
2019-03-17T10:55:35.635Z,86.57
2019-03-17T10:56:35.630Z,83.87
2019-03-17T10:57:35.628Z,83.00
2019-03-17T10:58:35.625Z,79.91
2019-03-17T10:59:35.617Z,78.28
2019-03-17T11:00:35.612Z,77.36
2019-03-17T11:01:35.615Z,75.04
2019-03-17T11:02:35.612Z,72.19
2019-03-17T11:03:35.606Z,70.78
2019-03-17T11:04:35.603Z,69.15
2019-03-17T11:05:35.602Z,69.18
2019-03-17T11:06:35.599Z,67.90
2019-03-17T11:07:35.608Z,67.77
2019-03-17T11:08:35.603Z,66.87
2019-03-17T11:09:35.604Z,67.96
2019-03-17T11:10:35.605Z,68.25
2019-03-17T11:11:35.601Z,68.25
2019-03-17T11:12:35.600Z,67.29
2019-03-17T11:13:35.603Z,65.20
2019-03-17T11:14:35.606Z,64.40
2019-03-17T11:15:35.610Z,64.05
2019-03-17T11:16:35.612Z,65.17
2019-03-17T11:17:35.609Z,66.36
2019-03-17T11:18:35.611Z,67.57
2019-03-17T11:19:35.618Z,68.88
2019-03-17T11:20:35.617Z,70.67
2019-03-17T11:21:35.617Z,71.34
2019-03-17T11:22:35.623Z,70.92
2019-03-17T11:23:35.617Z,71.94
2019-03-17T11:24:35.616Z,73.24
2019-03-17T11:25:35.620Z,73.63
2019-03-17T11:26:35.617Z,74.93
2019-03-17T11:27:35.624Z,75.76
2019-03-17T11:28:35.622Z,77.09
2019-03-17T11:29:35.624Z,78.81
2019-03-17T11:30:35.625Z,79.54
2019-03-17T11:31:35.621Z,79.83
2019-03-17T11:32:35.619Z,81.36
2019-03-17T11:33:35.624Z,81.84
2019-03-17T11:34:35.620Z,82.37
2019-03-17T11:35:35.618Z,82.65
2019-03-17T11:36:35.615Z,82.79
2019-03-17T11:37:35.608Z,82.41
2019-03-17T11:38:35.609Z,82.03
2019-03-17T11:39:38.026Z,82.03
2019-03-17T11:40:35.608Z,81.40
2019-03-17T11:41:35.603Z,81.07
2019-03-17T11:42:35.602Z,81.07
2019-03-17T11:43:35.594Z,81.40
2019-03-17T11:44:35.592Z,79.87
2019-03-17T11:45:35.592Z,79.64
2019-03-17T11:46:35.589Z,79.77
2019-03-17T11:47:35.598Z,79.77
2019-03-17T11:48:35.586Z,79.10
2019-03-17T11:49:35.580Z,79.77
2019-03-17T11:50:35.577Z,80.10
2019-03-17T11:51:35.576Z,79.14
2019-03-17T11:52:35.574Z,79.81
2019-03-17T11:53:35.569Z,78.95
2019-03-17T11:54:35.565Z,78.95
2019-03-17T11:55:35.567Z,77.99
2019-03-17T11:56:35.553Z,76.75
2019-03-17T11:57:35.552Z,76.75
2019-03-17T11:58:35.550Z,77.42
2019-03-17T11:59:35.550Z,77.42
2019-03-17T12:00:35.545Z,76.94
2019-03-17T12:01:35.541Z,75.89
2019-03-17T12:02:35.538Z,75.76
2019-03-17T12:03:35.529Z,75.66
2019-03-17T12:04:35.526Z,76.46
2019-03-17T12:05:35.526Z,75.56
2019-03-17T12:06:35.523Z,75.09
2019-03-17T12:07:35.512Z,76.14
2019-03-17T12:08:35.508Z,76.23
2019-03-17T12:09:35.508Z,75.66
2019-03-17T12:10:35.506Z,75.56
2019-03-17T12:11:35.504Z,76.23
2019-03-17T12:12:35.499Z,76.42
2019-03-17T12:13:35.496Z,75.85
2019-03-17T12:14:35.491Z,74.99
2019-03-17T12:15:35.485Z,74.90
2019-03-17T12:16:35.477Z,75.18
2019-03-17T12:17:35.471Z,74.70
2019-03-17T12:18:35.469Z,74.61
2019-03-17T12:19:35.468Z,74.90
2019-03-17T12:20:35.465Z,73.46
2019-03-17T12:21:35.453Z,73.94
2019-03-17T12:22:35.451Z,73.61
2019-03-17T12:23:35.451Z,74.19
2019-03-17T12:24:35.444Z,74.09
2019-03-17T12:25:35.442Z,73.52
2019-03-17T12:26:35.439Z,73.96
2019-03-17T12:27:35.430Z,74.24
2019-03-17T12:28:35.426Z,75.14
2019-03-17T12:29:35.421Z,74.95
2019-03-17T12:30:35.416Z,74.85
2019-03-17T12:31:35.418Z,75.14
2019-03-17T12:32:35.412Z,73.80
2019-03-17T12:33:35.405Z,73.04
2019-03-17T12:34:35.405Z,73.61
2019-03-17T12:35:35.393Z,73.23
2019-03-17T12:36:35.387Z,73.33
2019-03-17T12:37:35.388Z,73.71
2019-03-17T12:38:35.383Z,73.29
2019-03-17T12:39:35.374Z,73.39
2019-03-17T12:40:35.367Z,71.86
2019-03-17T12:41:38.124Z,71.92
2019-03-17T12:42:35.363Z,72.20
2019-03-17T12:43:35.366Z,72.58
2019-03-17T12:44:35.358Z,72.97
2019-03-17T12:45:35.351Z,73.35
2019-03-17T12:46:35.348Z,73.22
2019-03-17T12:47:37.373Z,74.17
2019-03-17T12:48:35.337Z,75.79
2019-03-17T12:49:35.327Z,76.75
2019-03-17T12:50:35.327Z,77.13
2019-03-17T12:51:35.324Z,78.23
2019-03-17T12:52:35.317Z,79.77